Terminal Aerodrome Forecast
Issued by NWS

Home | Current Version | Previous Version | Text Only | Print | Product List | Glossary On
Versions: 1 2 3 4 5 6 7 8 9 10 11 12 13 14 15 16 17 18 19
000
FTUS43 KLSX 122121 AAA
TAFSUS
TAF AMD
KSUS 122121Z 1221/1318 28012KT P6SM FEW250
     FM130000 29005KT P6SM FEW250
     FM130500 23004KT P6SM FEW200
     FM131200 20006KT P6SM FEW080 WS012/24040KT
     FM131600 24010G19KT P6SM SCT250=

USA.gov is the U.S. government's official web portal to all federal, state and local government web resources and services.